Aktuální počasí v Česku a ve světě - METAR

Seznam meteostanic umístěných nejčasteji na letišti v ČR a ve světě

Vyhledat místa podle abecedy:
A B C D E F G H I J K L M N O P Q R S T U V W X Y Z

Filtrovat:

ID stanice:
a/nebo
Název místa (fulltext):
 
Místo (ID)Naposledy načteno 
Kigali (HRYR) 27.07.2021 15:00 UTC Zobrazit METAR
HRYR 271500Z 16005KT 9999 FEW026 25/08 Q1019 NOSIG
Kingston (MKJP) 27.07.2021 15:00 UTC Zobrazit METAR
MKJP 271500Z 30006KT 9999 FEW022 BKN090 30/24 Q1015
Kingstown (TVSV) 13.12.2019 20:43 UTC Zobrazit METAR
TVSV 132043Z 12005G18KT 4000 SHRA BKN014 27/23 Q1010
Kinshasa (FZAA) 27.07.2021 15:00 UTC Zobrazit METAR
FZAA 271500Z 36006KT 6000 NSC 31/18 Q1010 NOSIG
Kittila (EFKT) 27.07.2021 14:50 UTC Zobrazit METAR
EFKT 271450Z AUTO 23008KT 210V270 CAVOK 25/14 Q1016
Klagenfurt (LOWK) 27.07.2021 14:50 UTC Zobrazit METAR
LOWK 271450Z 30006KT 250V330 9999 FEW045 24/17 Q1017 NOSIG
Kortrijk-Wevelgem (EBKT) Zatím nenačteno  
Kosice (LZKZ) 27.07.2021 15:00 UTC Zobrazit METAR
LZKZ 271500Z 24012KT CAVOK 30/14 Q1014 NOSIG
Krakow (EPKK) 27.07.2021 15:00 UTC Zobrazit METAR
EPKK 271500Z 25009KT 230V290 9999 FEW040 28/19 Q1014
Kuala Lumpur (WMKK) 27.07.2021 15:00 UTC Zobrazit METAR
WMKK 271500Z VRB03KT 9999 FEW030 26/23 Q1009 NOSIG
Kuopio (EFKU) 27.07.2021 14:50 UTC Zobrazit METAR
EFKU 271450Z AUTO 05003KT 340V090 CAVOK 27/13 Q1016
Kuressaare (EEKE) 27.07.2021 14:50 UTC Zobrazit METAR
EEKE 271450Z 12009KT 9999 -RA FEW040 23/18 Q1011
Kuwait (OKBK) 27.07.2021 15:00 UTC Zobrazit METAR
OKBK 271500Z 11008KT CAVOK 45/08 Q0993 NOSIG
Kyiv (UKBB) Zatím nenačteno  
L'viv (UKLL) 13.12.2012 15:00 UTC  
La Palma (GCLA) 27.07.2021 15:00 UTC Zobrazit METAR
GCLA 271500Z 02013KT 350V050 9999 FEW034 26/19 Q1016
La Paz (SLLP) 27.07.2021 15:00 UTC Zobrazit METAR
SLLP 271500Z 24005KT 9999 FEW017 SCT200 10/M08 Q1040
Laayoune (GMML) 27.07.2021 15:00 UTC Zobrazit METAR
GMML 271500Z 02018G30KT 9999 SCT030 28/18 Q1011 NOSIG
Larnaca (LCLK) 27.07.2021 15:00 UTC Zobrazit METAR
LCLK 271500Z 21011KT CAVOK 36/15 Q1007 NOSIG
Leipzig-Halle (EDDP) 27.07.2021 14:50 UTC Zobrazit METAR
EDDP 271450Z 24010KT 200V260 CAVOK 26/13 Q1012 NOSIG
Libreville (FOOL) 27.07.2021 15:00 UTC Zobrazit METAR
FOOL 271500Z 24005KT 220V280 9999 SCT011 BKN030 26/22 Q1012 NOSIG
Liege (EBLG) 27.07.2021 10:50 UTC Zobrazit METAR
EBLG 271050Z 23008KT 9999 SCT025 20/15 Q1013 NOSIG
Liepaja (EVLA) 27.07.2021 14:50 UTC Zobrazit METAR
EVLA 271450Z AUTO 21003KT 180V260 9999 BKN061/// 25/18 Q1009
Lille (LFQQ) 27.07.2021 13:00 UTC Zobrazit METAR
LFQQ 271300Z AUTO 18011KT 9999 SCT022 SCT027 BKN190 21/16 Q1010 TEMPO 20015G25KT 1200 TSRA BKN007 BKN015CB
Lilongwe (FWLI) 04.06.2013 21:00 UTC Zobrazit METAR
FWLI 042100Z 05003KT CAVOK 14/11 Q1023 NOSIG
Lima - Callao (SPIM) 07.06.2019 22:00 UTC Zobrazit METAR
SPIM 072200Z /////KT 9999 BKN035 18/15 Q1015 RMK PP000
Limnos (LGLM) 27.07.2021 14:50 UTC Zobrazit METAR
LGLM 271450Z 03009KT CAVOK 32/09 Q1016
Linz (LOWL) 27.07.2021 14:50 UTC Zobrazit METAR
LOWL 271450Z 09006KT 040V130 9999 FEW050 27/16 Q1013 NOSIG
Lisbon (LPPT) 27.07.2021 15:00 UTC Zobrazit METAR
LPPT 271500Z 32013KT CAVOK 27/12 Q1014
Liverpool (EGGP) 27.07.2021 14:50 UTC Zobrazit METAR
EGGP 271450Z 30005KT 8000 VCSH FEW009 SCT013 BKN020 18/16 Q1007 RERA
Ljubljana (LJLJ) 27.07.2021 12:00 UTC Zobrazit METAR
LJLJ 271200Z VRB02KT 9999 FEW030 SCT040 25/18 Q1018 NOSIG
Lome (DXXX) 27.07.2021 15:00 UTC Zobrazit METAR
DXXX 271500Z 22013KT 190V250 9999 FEW012 SCT030 27/22 Q1013 NOSIG
London (EGLL) 27.07.2021 03:50 UTC Zobrazit METAR
EGLL 270350Z AUTO 23011KT 9999 BKN038 17/13 Q1009
Luanda (FNLU) 27.07.2021 15:00 UTC Zobrazit METAR
FNLU 271500Z 25009KT CAVOK 25/20 Q1010 NOSIG
Lulea (ESPA) 27.07.2021 14:50 UTC Zobrazit METAR
ESPA 271450Z 15008KT CAVOK 21/15 Q1017
Lusaka (FLLS) 13.01.2014 07:00 UTC Zobrazit METAR
FLLS 130700Z 36009KT CAVOK 25/20 Q1019
Luxembourg Airport (ELLX) 27.07.2021 13:50 UTC Zobrazit METAR
ELLX 271350Z 11005KT 050V160 9999 FEW005 SCT025 BKN030 16/16 Q1014 TEMPO 4500 SHRA SCT020CB
Lyon (LFLL) 27.07.2021 15:00 UTC Zobrazit METAR
LFLL 271500Z 30005KT 260V330 CAVOK 27/15 Q1013 NOSIG
Macau (VMMC) 27.07.2021 15:00 UTC Zobrazit METAR
VMMC 271500Z VRB01KT 9999 FEW015 30/28 Q0997 NOSIG
Madeira (LPMA) 27.07.2021 15:00 UTC Zobrazit METAR
LPMA 271500Z 02012KT 320V050 9999 FEW015 SCT030 25/17 Q1017
Madrid (LETO) 27.07.2021 15:00 UTC Zobrazit METAR
LETO 271500Z 20011KT 170V260 CAVOK 32/09 Q1013 NOSIG
Majuro Atoll (PKMA) Zatím nenačteno  
Malabo (FGSL) 27.07.2021 15:00 UTC Zobrazit METAR
FGSL 271500Z 25009KT 9999 SCT009 SCT050 29/23 Q1013 NOSIG
Malaga (LEMG) 27.07.2021 15:00 UTC Zobrazit METAR
LEMG 271500Z 13009KT 100V170 9999 FEW035 27/22 Q1013 NOSIG
Male (VRMM) 27.07.2021 00:00 UTC Zobrazit METAR
VRMM 270000Z 26009KT 9999 FEW018 BKN270 28/25 Q1010 NOSIG
Malmo (ESMS) 27.07.2021 12:50 UTC Zobrazit METAR
ESMS 271250Z 21013KT CAVOK 27/17 Q1009
Malta (LMML) 27.07.2021 14:45 UTC Zobrazit METAR
LMML 271445Z VRB04KT 9999 FEW025 31/22 Q1017 NOSIG
Managua (MNMG) 27.07.2021 15:00 UTC Zobrazit METAR
MNMG 271500Z 12008KT 9999 FEW023 BKN070 29/23 Q1013 A2992 NOSIG
Manchester (EGCC) 27.07.2021 14:50 UTC Zobrazit METAR
EGCC 271450Z 18004KT 6000 -SHRA BKN048 16/15 Q1007 TEMPO SHRA
Manila (RPLL) 27.07.2021 15:00 UTC Zobrazit METAR
RPLL 271500Z 26012KT 7000 -RA SCT018 OVC070 29/27 Q1004 NOSIG RMK A2965
Předchozí 1 ... 3 4 5 6 7 ... 9 Další
Reklama

Reklama


Newslettter

Počasí na Váš email

Emaily jsou bez reklamy a bez spamu



Odhlásit newsletter



Kontaktujte nás

Kontaktujte Slunečno.cz

Kontaktujte provozovatele Slunecno.cz

Další české internetové stránky (nejen) o počasí najdete v katalogu TOPlist - weby o počasí nebo vyhledejte na internetu, co jste tu na Počasí Slunečno Slunečnu zatím nenašli:
Přidat mezzi oblíbené stránkyPřidat Slunečno.cz do oblíbených | Nastavit jako HOMEPAGENastavit Slunečno.cz jako HOMEPAGE

Posunout stránku nahoru Posunout stránku nahoru Posunout stránku nahoru
Reklama